Laurens, SC (29360)

4:23 PM EST on December 26, 2014 (GMT -0500)
Lake Rabon | Change Station
CLOSE
Current Station
Personal Weather Station
Location: Laurens, SC
Elevation: 615 ft
Nearby Weather Stations

Elev 615 ft 34.49 °N, 82.14 °W | Updated 3 minutes ago

Clear
Clear
57.0 °F
Feels Like 57.0 °F
N
0.0
Wind Variable Wind from ESE
Gusts 0.0 mph

Today
High -- | Low -- °F
--% Chance of Precip.
Yesterday
High -- | Low -- °F
Precip. -- in
7:33 AM 5:24 PM
Waxing Crescent, 29% visible
Pressure 30.27 in
Visibility 10.0 miles
Clouds Clear
Dew Point 35 °F
Humidity 44%
Rainfall 0.00 in
Snow Depth Not available.
UV 0.0 out of 12
Pollen 1.50 out of 12
Air Quality Not available.
Flu Activity Not available.
METAR KLUX 262115Z AUTO 00000KT 10SM CLR 15/05 A3027 RMK AO2

More Conditions Fewer Conditions

Pressure 30.27 in
Visibility 10.0 miles
Clouds Clear
Dew Point 35 °F
Humidity 44%
Rainfall 0.00 in
Snow Depth Not available.
UV 0.0 out of 12
Pollen 1.50 out of 12
Air Quality Not available.
Flu Activity Not available.
METAR KLUX 262115Z AUTO 00000KT 10SM CLR 15/05 A3027 RMK AO2

More Conditions Fewer Conditions

10-Day Weather Forecast

Almanac

Astronomy

Dec. 26, 2014 Rise Set
Actual Time
Civil Twilight
Nautical Twilight
Astronomical Twilight
Moon
Length of Visible Light
Length of Day
Tomorrow will be .
, % of the Moon is Illuminated

Today's Extremes

State Highs State Lows

Community

WunderPhotos

Upload Photos

1,780,718 photos uploaded!

WunderBlogs® & News

Nearby

Air Quality

  Air Quality AQ Index Pollutant
Not available.

Snow Depth

Station Depth Elevation

Earthquake Activity

City Distance Mag. Time & Date
Minimum magnitude displayed is 2.5.

Coastal Water Temperatures

Place Temperature

Nearby Weather Stations